Map

Track Data

SID SEASON NUMBER BASIN SUBBASIN NAME ISO_TIME NATURE LAT LON WMO_WIND WMO_PRES WMO_AGENCY TRACK_TYPE DIST2LAND LANDFALL IFLAG USA_AGENCY USA_ATCF_ID USA_LAT USA_LON USA_RECORD USA_STATUS USA_WIND USA_PRES USA_SSHS USA_R34_NE USA_R34_SE USA_R34_SW USA_R34_NW USA_R50_NE USA_R50_SE USA_R50_SW USA_R50_NW USA_R64_NE USA_R64_SE USA_R64_SW USA_R64_NW USA_POCI USA_ROCI USA_RMW USA_EYE TOKYO_LAT TOKYO_LON TOKYO_GRADE TOKYO_WIND TOKYO_PRES TOKYO_R50_DIR TOKYO_R50_LONG TOKYO_R50_SHORT TOKYO_R30_DIR TOKYO_R30_LONG TOKYO_R30_SHORT TOKYO_LAND CMA_LAT CMA_LON CMA_CAT CMA_WIND CMA_PRES HKO_LAT HKO_LON HKO_CAT HKO_WIND HKO_PRES NEWDELHI_LAT NEWDELHI_LON NEWDELHI_GRADE NEWDELHI_WIND NEWDELHI_PRES NEWDELHI_CI NEWDELHI_DP NEWDELHI_POCI REUNION_LAT REUNION_LON REUNION_TYPE REUNION_WIND REUNION_PRES REUNION_TNUM REUNION_CI REUNION_RMW REUNION_R34_NE REUNION_R34_SE REUNION_R34_SW REUNION_R34_NW REUNION_R50_NE REUNION_R50_SE REUNION_R50_SW REUNION_R50_NW REUNION_R64_NE REUNION_R64_SE REUNION_R64_SW REUNION_R64_NW BOM_LAT BOM_LON BOM_TYPE BOM_WIND BOM_PRES BOM_TNUM BOM_CI BOM_RMW BOM_R34_NE BOM_R34_SE BOM_R34_SW BOM_R34_NW BOM_R50_NE BOM_R50_SE BOM_R50_SW BOM_R50_NW BOM_R64_NE BOM_R64_SE BOM_R64_SW BOM_R64_NW BOM_ROCI BOM_POCI BOM_EYE BOM_POS_METHOD BOM_PRES_METHOD NADI_LAT NADI_LON NADI_CAT NADI_WIND NADI_PRES WELLINGTON_LAT WELLINGTON_LON WELLINGTON_WIND WELLINGTON_PRES DS824_LAT DS824_LON DS824_STAGE DS824_WIND DS824_PRES TD9636_LAT TD9636_LON TD9636_STAGE TD9636_WIND TD9636_PRES TD9635_LAT TD9635_LON TD9635_WIND TD9635_PRES TD9635_ROCI NEUMANN_LAT NEUMANN_LON NEUMANN_CLASS NEUMANN_WIND NEUMANN_PRES MLC_LAT MLC_LON MLC_CLASS MLC_WIND MLC_PRES USA_GUST BOM_GUST BOM_GUST_PER REUNION_GUST REUNION_GUST_PER USA_SEAHGT USA_SEARAD_NE USA_SEARAD_SE USA_SEARAD_SW USA_SEARAD_NW STORM_SPEED STORM_DIR
1981068S19199 1981 20 SP MM TAHMAR 1981-03-08 12:00:00 NR -19.0000 -161.000 30 997 wellington main 1328 1328 ________O_____ -1 -19.0000 -161.000 30 997 11 121
1981068S19199 1981 20 SP MM TAHMAR 1981-03-08 15:00:00 NR -19.2854 -160.501 main 1390 1390 ________P_____ -1 -19.2854 -160.501 30 997 11 121
1981068S19199 1981 20 SP MM TAHMAR 1981-03-08 18:00:00 NR -19.5561 -160.002 main 1451 1451 ________P_____ -1 -19.5561 -160.002 30 997 11 119
1981068S19199 1981 20 SP MM TAHMAR 1981-03-08 21:00:00 NR -19.7988 -159.501 main 1508 1508 ________P_____ -1 -19.7988 -159.501 30 997 8 113
1981068S19199 1981 20 SP MM TAHMAR 1981-03-09 00:00:00 TS -19.8714 -159.214 30 997 wellington main 1542 1542 O_______O_O_O_ jtwc_sh SH231981 -19.7000 -159.500 -1 -20.0000 -159.000 30 997 -19.7000 -159.500 1 -19.7000 -159.500 TC 30 6 106
1981068S19199 1981 20 SP MM TAHMAR 1981-03-09 03:00:00 TS -19.9692 -158.885 main 1575 1575 P_______P_P_P_ SH231981 -19.8626 -159.163 -1 -20.1492 -158.500 30 997 -19.8247 -159.102 1 -19.8601 -159.163 TC 30 7 107
1981068S19199 1981 20 SP MM TAHMAR 1981-03-09 06:00:00 TS -20.0642 -158.534 main 1617 1617 O_______P_P_O_ jtwc_sh SH231981 -20.0000 -158.800 -1 -20.2469 -158.000 30 997 -19.9491 -158.713 1 -20.0000 -158.800 TC 30 7 104
1981068S19199 1981 20 SP MM TAHMAR 1981-03-09 09:00:00 TS -20.1444 -158.160 main 1646 1646 P_______P_P_P_ SH231981 -20.1000 -158.400 -1 -20.2961 -157.500 30 997 -20.0739 -158.342 1 -20.1075 -158.400 TC 30 8 102
1981068S19199 1981 20 SP MM TAHMAR 1981-03-09 12:00:00 TS -20.2250 -157.750 30 997 wellington main 1699 1689 O_______O_O_O_ jtwc_sh SH231981 -20.2000 -158.000 -1 -20.3000 -157.000 30 997 -20.2000 -158.000 1 -20.2000 -158.000 TC 30 8 103
1981068S19199 1981 20 SP MM TAHMAR 1981-03-09 15:00:00 TS -20.3162 -157.367 main 1732 1732 P_______P_P_P_ SH231981 -20.3648 -157.650 -1 -20.2680 -156.483 32 995 -20.3245 -157.686 1 -20.3073 -157.650 TC 30 7 102
1981068S19199 1981 20 SP MM TAHMAR 1981-03-09 18:00:00 TS -20.3813 -156.983 main 1775 1775 O_______P_P_O_ jtwc_sh SH231981 -20.5000 -157.300 -1 -20.1949 -155.969 35 993 -20.4302 -157.363 1 -20.4000 -157.300 TC 30 7 97
1981068S19199 1981 20 SP MM TAHMAR 1981-03-09 21:00:00 TS -20.4067 -156.590 main 1813 1813 P_______P_P_P_ SH231981 -20.5446 -156.945 -1 -20.0993 -155.471 37 991 -20.4959 -156.984 1 -20.4870 -156.960 TC 30 8 90
1981068S19199 1981 20 SP MM TAHMAR 1981-03-10 00:00:00 TS -20.3750 -156.125 40 990 wellington main 1862 1862 O_______O_O_O_ jtwc_sh SH231981 -20.5000 -156.500 -1 -20.0000 -155.000 40 990 -20.5000 -156.500 2 -20.5000 -156.500 TC 30 10 82
1981068S19199 1981 20 SP MM TAHMAR 1981-03-10 03:00:00 TS -20.2718 -155.549 main 1917 1917 P_______P_P_P_ SH231981 -20.3722 -155.917 -1 -19.9195 -154.616 42 988 -20.4154 -155.861 2 -20.3802 -155.802 TC 30 12 78
1981068S19199 1981 20 SP MM TAHMAR 1981-03-10 06:00:00 TS -20.1272 -154.893 main 1969 1969 O_______P_P_O_ jtwc_sh SH231981 -20.2000 -155.200 -1 -19.8403 -154.253 45 987 -20.2684 -155.118 2 -20.2000 -155.000 TC 30 13 77
1981068S19199 1981 20 SP MM TAHMAR 1981-03-10 09:00:00 TS -19.9882 -154.199 main 2035 2035 P_______P_P_P_ SH231981 -20.0502 -154.365 -1 -19.7661 -153.863 47 986 -20.0870 -154.317 2 -20.0497 -154.250 TC 32 14 78
1981068S19199 1981 20 SP MM TAHMAR 1981-03-10 12:00:00 TS -19.8500 -153.475 50 985 wellington main 2099 2102 O_______O_O_O_ jtwc_sh SH231981 -19.9000 -153.500 -1 -19.7000 -153.400 50 985 -19.9000 -153.500 2 -19.9000 -153.500 TC 35 14 78
1981068S19199 1981 20 SP MM TAHMAR 1981-03-10 15:00:00 TS -19.6884 -152.756 main 2167 2167 P_______P_P_P_ SH231981 -19.7494 -152.743 -1 -19.5989 -152.791 52 982 -19.6557 -152.733 2 -19.7496 -152.758 TC 37 14 77
1981068S19199 1981 20 SP MM TAHMAR 1981-03-10 18:00:00 TS -19.5343 -152.017 main 2243 2243 O_______P_P_O_ jtwc_sh SH231981 -19.6000 -152.000 -1 -19.5111 -152.108 55 980 -19.4263 -151.960 2 -19.6000 -152.000 TC 40 15 78
1981068S19199 1981 20 SP MM TAHMAR 1981-03-10 21:00:00 TS -19.3845 -151.250 main 2312 2312 P_______P_P_P_ SH231981 -19.3898 -151.207 -1 -19.4675 -151.397 57 977 -19.2837 -151.183 2 -19.3972 -151.214 TC 42 15 83
1981068S19199 1981 20 SP MM TAHMAR 1981-03-11 00:00:00 TS -19.3500 -150.475 60 975 wellington main 2391 2391 O_______O_O_O_ jtwc_sh SH231981 -19.3000 -150.400 -1 -19.5000 -150.700 60 975 -19.3000 -150.400 2 -19.3000 -150.400 TC 45 15 94
1981068S19199 1981 20 SP MM TAHMAR 1981-03-11 03:00:00 TS -19.4835 -149.684 main 2478 2478 P_______P_P_P_ SH231981 -19.4372 -149.600 -1 -19.5682 -150.065 61 973 -19.5487 -149.530 2 -19.3799 -149.542 TC 50 15 107
1981068S19199 1981 20 SP MM TAHMAR 1981-03-11 06:00:00 TS -19.7953 -148.904 main 2567 2567 O_______P_P_O_ jtwc_sh SH231981 -19.8000 -148.800 -1 -19.7243 -149.453 62 972 -19.9570 -148.663 2 -19.7000 -148.700 TC 55 17 119
1981068S19199 1981 20 SP MM TAHMAR 1981-03-11 09:00:00 TS -20.2807 -148.131 main 2660 2660 P_______P_P_P_ SH231981 -20.3629 -147.926 -1 -19.9933 -148.865 63 971 -20.4615 -147.864 2 -20.3052 -147.869 TC 60 17 128
1981068S19199 1981 20 SP MM TAHMAR 1981-03-11 12:00:00 TS -20.8500 -147.475 65 970 wellington main 2733 2735 O_______O_O_O_ jtwc_sh SH231981 -21.0000 -147.200 -1 -20.4000 -148.300 65 970 -21.0000 -147.200 2 -21.0000 -147.200 TC 65 15 138
1981068S19199 1981 20 SP MM TAHMAR 1981-03-11 15:00:00 TS -21.3589 -147.074 main 2789 2789 P_______P_P_P_ SH231981 -21.5143 -146.824 -1 -20.9657 -147.797 65 970 -21.4338 -146.843 2 -21.5219 -146.831 TC 67 12 148
1981068S19199 1981 20 SP MM TAHMAR 1981-03-11 18:00:00 TS -21.8898 -146.780 main 2832 2832 O_______P_P_O_ jtwc_sh SH231981 -22.0000 -146.600 -1 -21.6624 -147.308 65 970 -21.8969 -146.613 2 -22.0000 -146.600 TC 70 12 153
1981068S19199 1981 20 SP MM TAHMAR 1981-03-11 21:00:00 TS -22.4389 -146.482 main 2876 2876 P_______P_P_P_ SH231981 -22.4617 -146.381 -1 -22.4279 -146.790 65 970 -22.4117 -146.376 2 -22.4542 -146.381 TC 70 13 150
1981068S19199 1981 20 SP MM TAHMAR 1981-03-12 00:00:00 TS -23.0500 -146.050 65 970 wellington main 2934 2934 O_______O_O_O_ jtwc_sh SH231981 -23.0000 -146.000 -1 -23.2000 -146.200 65 970 -23.0000 -146.000 2 -23.0000 -146.000 TC 70 17 141
1981068S19199 1981 20 SP MM TAHMAR 1981-03-12 03:00:00 TS -23.7858 -145.315 main 3037 3037 P_______P_P_P_ SH231981 -23.7130 -145.241 -1 -23.9182 -145.504 62 972 -23.7417 -145.276 2 -23.7705 -145.241 TC 67 21 136
1981068S19199 1981 20 SP MM TAHMAR 1981-03-12 06:00:00 TS -24.5663 -144.430 main 3150 3150 O_______P_P_O_ jtwc_sh SH231981 -24.5000 -144.300 -1 -24.6240 -144.728 60 975 -24.5414 -144.394 2 -24.6000 -144.300 TC 65 22 133
1981068S19199 1981 20 SP MM TAHMAR 1981-03-12 09:00:00 TS -25.3132 -143.522 main 3260 3260 P_______P_P_P_ SH231981 -25.2874 -143.385 -1 -25.2927 -143.888 57 977 -25.3199 -143.439 2 -25.3525 -143.378 TC 60 22 131
1981068S19199 1981 20 SP MM TAHMAR 1981-03-12 12:00:00 TS -25.9750 -142.625 55 980 wellington main 3370 3370 O_______O_O_O_ jtwc_sh SH231981 -26.0000 -142.500 -1 -25.9000 -143.000 55 980 -26.0000 -142.500 1 -26.0000 -142.500 TC 55 20 128
1981068S19199 1981 20 SP MM TAHMAR 1981-03-12 15:00:00 TS -26.5097 -141.811 main 3463 3463 P_______P_P_P_ SH231981 -26.5742 -141.727 -1 -26.4291 -142.080 53 981 -26.5265 -141.652 1 -26.5089 -141.784 TC 50 17 124
1981068S19199 1981 20 SP MM TAHMAR 1981-03-12 18:00:00 TS -26.9290 -141.031 main 3553 3553 O_______P_P_O_ jtwc_sh SH231981 -27.0000 -141.000 -1 -26.8925 -141.136 52 982 -26.9236 -140.888 1 -26.9000 -141.100 TC 45 16 118
1981068S19199 1981 20 SP MM TAHMAR 1981-03-12 21:00:00 TS -27.2628 -140.236 main 3642 3642 P_______P_P_P_ SH231981 -27.2885 -140.258 -1 -27.3096 -140.174 51 983 -27.2341 -140.180 1 -27.2189 -140.331 TC 40 16 114
1981068S19199 1981 20 SP MM TAHMAR 1981-03-13 00:00:00 TS -27.5500 -139.425 50 985 wellington main 3724 O_______O_O_O_ jtwc_sh SH231981 -27.5000 -139.500 -1 -27.7000 -139.200 50 985 -27.5000 -139.500 1 -27.5000 -139.500 TC 35 15 112

Digital Typhoon Data and Search

About IBTrACS Database

This database is a web-friendly format of International Best Track Archive for Climate Stewardship (IBTrACS), a global best track data archive curated by NOAA dating back to 1842.

Updated: 2021-11-26